C Handy — V7VW8 — position and weather

sailwx.info

Track history (hours):
 
Tides and Currents Weather Stations Pressure Air Temp Water Temp Dewpoint Dewpoint Depression Visibility Wind Speed Wind Dir Waves Ship Positions

C Handy

Last reported at 2018-Apr-20 18:28 UTC. Time now 2018-Apr-20 18:43 UTC.
Position N 51°16' E 003°50'.

Length 186 m; draft 9.5 m.

Type: Cargo ship. MMSI: 538004231.

Date/timePositionNaut miles runAvg speedWind from/ knotsBaromVisibWave heightAir tempDewpointWater temp
2018-Apr-20 18:28N 51°16' E 003°50'0 0.0
2018-Apr-20 17:58N 51°16' E 003°50'0 0.0
2018-Apr-20 17:28N 51°16' E 003°50'0 0.0
2018-Apr-20 16:58N 51°16' E 003°50'0 0.0
2018-Apr-20 16:28N 51°16' E 003°50'0 0.0
2018-Apr-20 15:58N 51°16' E 003°50'0 0.0
2018-Apr-20 15:28N 51°16' E 003°50'0 0.0
2018-Apr-20 14:58N 51°16' E 003°50'0 0.0
2018-Apr-20 14:28N 51°16' E 003°50'0 0.0
2018-Apr-20 13:58N 51°16' E 003°50'0 0.0
2018-Apr-20 13:28N 51°16' E 003°50'0 0.0
2018-Apr-20 12:58N 51°16' E 003°50'0 0.0
2018-Apr-20 12:28N 51°16' E 003°50'0 0.0
2018-Apr-20 11:58N 51°16' E 003°50'0 0.0
2018-Apr-20 11:28N 51°16' E 003°50'0 0.0
2018-Apr-20 10:55N 51°16' E 003°50'0 0.0
2018-Apr-20 10:28N 51°16' E 003°50'0 0.0
2018-Apr-20 09:58N 51°16' E 003°50'0 0.0
2018-Apr-20 09:28N 51°16' E 003°50'0 0.0
2018-Apr-20 08:58N 51°16' E 003°50'0 0.0
2018-Apr-20 08:28N 51°16' E 003°50'0 0.0
2018-Apr-20 07:58N 51°16' E 003°50'0 0.0
2018-Apr-20 07:28N 51°16' E 003°50'0 0.0
2018-Apr-20 06:58N 51°16' E 003°50'0 0.0
2018-Apr-20 06:28N 51°16' E 003°50'0 0.1
2018-Apr-20 06:01N 51°16' E 003°50'2 4.3
2018-Apr-20 05:30N 51°18' E 003°50'2 3.9
2018-Apr-20 05:00N 51°20' E 003°49'0 0.2
2018-Apr-20 04:30N 51°20' E 003°49'2 4.6
2018-Apr-20 04:00N 51°21' E 003°46'5 9.0
2018-Apr-20 03:30N 51°25' E 003°42'510.0
2018-Apr-20 03:00N 51°25' E 003°34'714.2
2018-Apr-20 02:30N 51°24' E 003°23'816.4
2018-Apr-20 02:00N 51°24' E 003°10'714.2
2018-Apr-20 01:30N 51°23' E 002°59'713.7
2018-Apr-20 01:00N 51°21' E 002°48'611.2
2018-Apr-20 00:30N 51°21' E 002°39'612.1
2018-Apr-20 00:00N 51°22' E 002°29'612.0
2018-Apr-19 23:30N 51°19' E 002°21'611.6
2018-Apr-19 23:00N 51°16' E 002°13'611.3
2018-Apr-19 22:30N 51°13' E 002°05'611.0
2018-Apr-19 22:00N 51°10' E 001°58'5 9.9
2018-Apr-19 21:30N 51°08' E 001°51'5 9.3
2018-Apr-19 21:00N 51°05' E 001°45'5 9.4
2018-Apr-19 20:30N 51°02' E 001°40'5 9.6
2018-Apr-19 20:00N 50°59' E 001°34'510.0
2018-Apr-19 19:30N 50°55' E 001°29'510.7
2018-Apr-19 19:01N 50°50' E 001°26'611.3
2018-Apr-19 18:30N 50°44' E 001°23'611.1
2018-Apr-19 17:59N 50°39' E 001°19'611.6
2018-Apr-19 17:30N 50°35' E 001°13'611.7
2018-Apr-19 17:00N 50°32' E 001°06'611.6
2018-Apr-19 16:30N 50°28' E 000°59'611.6
2018-Apr-19 15:59N 50°27' E 000°49'611.7
2018-Apr-19 15:30N 50°26' E 000°41'611.8
2018-Apr-19 14:59N 50°24' E 000°32'611.8
2018-Apr-19 14:30N 50°22' E 000°23'611.6
2018-Apr-19 14:00N 50°20' E 000°15'611.7
2018-Apr-19 13:30N 50°18' E 000°06'612.4
2018-Apr-19 13:00N 50°17' W 000°03'713.1
2018-Apr-19 12:30N 50°16' W 000°13'714.1
2018-Apr-19 12:00N 50°14' W 000°24'714.7
2018-Apr-19 11:30N 50°12' W 000°35'815.3
2018-Apr-19 11:00N 50°10' W 000°47'815.7
2018-Apr-19 10:30N 50°08' W 000°58'815.9
2018-Apr-19 10:01N 50°05' W 001°10'816.1
2018-Apr-19 09:31N 50°03' W 001°22'816.0
2018-Apr-19 09:01N 50°01' W 001°34'815.8
2018-Apr-19 08:30N 49°59' W 001°46'815.1
2018-Apr-19 08:01N 49°58' W 001°58'714.2
2018-Apr-19 07:31N 49°56' W 002°08'713.3
2018-Apr-19 07:01N 49°54' W 002°18'612.5
2018-Apr-19 06:30N 49°52' W 002°28'612.0
2018-Apr-19 06:00N 49°51' W 002°37'611.7
2018-Apr-19 05:30N 49°49' W 002°45'611.2
2018-Apr-19 05:00N 49°47' W 002°54'610.9
2018-Apr-19 04:27N 49°44' W 003°01'610.6
2018-Apr-19 03:54N 49°41' W 003°09'410.6
2018-Apr-19 03:31N 49°39' W 003°15'510.5
2018-Apr-19 03:00N 49°36' W 003°22'510.4
2018-Apr-19 02:31N 49°34' W 003°29'510.3
2018-Apr-19 02:01N 49°31' W 003°36'510.3
2018-Apr-19 01:30N 49°29' W 003°43'610.2
2018-Apr-19 00:52N 49°26' W 003°51'1010.3
2018-Apr-18 23:51N 49°21' W 004°06'510.4
2018-Apr-18 23:24N 49°19' W 004°12'410.5
2018-Apr-18 23:00N 49°17' W 004°17'510.6
2018-Apr-18 22:30N 49°14' W 004°24'511.0
2018-Apr-18 22:00N 49°11' W 004°32'611.2
2018-Apr-18 21:30N 49°08' W 004°39'611.8
2018-Apr-18 21:00N 49°05' W 004°47'812.0
2018-Apr-18 20:19N 49°01' W 004°58'1712.7
2018-Apr-18 18:58N 48°53' W 005°21'1513.5
2018-Apr-18 17:53N 48°45' W 005°39'1313.6
2018-Apr-18 16:58N 48°34' W 005°49'1413.7
2018-Apr-18 15:58N 48°22' W 005°58'3913.0
2018-Apr-18 12:58N 47°47' W 006°23'  
2018-Apr-14 10:34N 37°60' W 026°60'111.7
2018-Apr-14 10:30N 37°59' W 027°00'611.5
2018-Apr-14 10:00N 37°58' W 027°07'611.6
2018-Apr-14 09:30N 37°56' W 027°14'611.7
2018-Apr-14 09:00N 37°54' W 027°21'611.8
2018-Apr-14 08:30N 37°53' W 027°29'611.7
2018-Apr-14 08:00N 37°51' W 027°36'611.7
2018-Apr-14 07:31N 37°49' W 027°43'611.6
2018-Apr-14 07:00N 37°48' W 027°50'611.6
2018-Apr-14 06:30N 37°46' W 027°57'611.5
2018-Apr-14 06:00N 37°44' W 028°04'611.7
2018-Apr-14 05:30N 37°43' W 028°11'611.8
2018-Apr-14 05:00N 37°42' W 028°18'611.5
2018-Apr-14 04:30N 37°40' W 028°25'611.6
2018-Apr-14 04:00N 37°39' W 028°32'611.7
2018-Apr-14 03:30N 37°37' W 028°39'611.9
2018-Apr-14 03:00N 37°35' W 028°47'611.8
2018-Apr-14 02:30N 37°33' W 028°54'611.8
2018-Apr-14 02:00N 37°32' W 029°01'611.9
2018-Apr-14 01:29N 37°30' W 029°08'  
Track history (hours):
 
Tides and Currents Weather Stations Pressure Air Temp Water Temp Dewpoint Dewpoint Depression Visibility Wind Speed Wind Dir Waves Ship Positions

C Handy

Last reported at 2018-Apr-20 18:28 UTC. Time now 2018-Apr-20 18:43 UTC.
Position N 51°16' E 003°50'.

Length 186 m; draft 9.5 m.

Type: Cargo ship. MMSI: 538004231.

Date/timePositionNaut miles runAvg speedWind from/ knotsBaromVisibWave heightAir tempDewpointWater temp
2018-Apr-20 18:28N 51°16' E 003°50'0 0.0
2018-Apr-20 17:58N 51°16' E 003°50'0 0.0
2018-Apr-20 17:28N 51°16' E 003°50'0 0.0
2018-Apr-20 16:58N 51°16' E 003°50'0 0.0
2018-Apr-20 16:28N 51°16' E 003°50'0 0.0
2018-Apr-20 15:58N 51°16' E 003°50'0 0.0
2018-Apr-20 15:28N 51°16' E 003°50'0 0.0
2018-Apr-20 14:58N 51°16' E 003°50'0 0.0
2018-Apr-20 14:28N 51°16' E 003°50'0 0.0
2018-Apr-20 13:58N 51°16' E 003°50'0 0.0
2018-Apr-20 13:28N 51°16' E 003°50'0 0.0
2018-Apr-20 12:58N 51°16' E 003°50'0 0.0
2018-Apr-20 12:28N 51°16' E 003°50'0 0.0
2018-Apr-20 11:58N 51°16' E 003°50'0 0.0
2018-Apr-20 11:28N 51°16' E 003°50'0 0.0
2018-Apr-20 10:55N 51°16' E 003°50'0 0.0
2018-Apr-20 10:28N 51°16' E 003°50'0 0.0
2018-Apr-20 09:58N 51°16' E 003°50'0 0.0
2018-Apr-20 09:28N 51°16' E 003°50'0 0.0
2018-Apr-20 08:58N 51°16' E 003°50'0 0.0
2018-Apr-20 08:28N 51°16' E 003°50'0 0.0
2018-Apr-20 07:58N 51°16' E 003°50'0 0.0
2018-Apr-20 07:28N 51°16' E 003°50'0 0.0
2018-Apr-20 06:58N 51°16' E 003°50'0 0.0
2018-Apr-20 06:28N 51°16' E 003°50'0 0.1
2018-Apr-20 06:01N 51°16' E 003°50'2 4.3
2018-Apr-20 05:30N 51°18' E 003°50'2 3.9
2018-Apr-20 05:00N 51°20' E 003°49'0 0.2
2018-Apr-20 04:30N 51°20' E 003°49'2 4.6
2018-Apr-20 04:00N 51°21' E 003°46'5 9.0
2018-Apr-20 03:30N 51°25' E 003°42'510.0
2018-Apr-20 03:00N 51°25' E 003°34'714.2
2018-Apr-20 02:30N 51°24' E 003°23'816.4
2018-Apr-20 02:00N 51°24' E 003°10'714.2
2018-Apr-20 01:30N 51°23' E 002°59'713.7
2018-Apr-20 01:00N 51°21' E 002°48'611.2
2018-Apr-20 00:30N 51°21' E 002°39'612.1
2018-Apr-20 00:00N 51°22' E 002°29'612.0
2018-Apr-19 23:30N 51°19' E 002°21'611.6
2018-Apr-19 23:00N 51°16' E 002°13'611.3
2018-Apr-19 22:30N 51°13' E 002°05'611.0
2018-Apr-19 22:00N 51°10' E 001°58'5 9.9
2018-Apr-19 21:30N 51°08' E 001°51'5 9.3
2018-Apr-19 21:00N 51°05' E 001°45'5 9.4
2018-Apr-19 20:30N 51°02' E 001°40'5 9.6
2018-Apr-19 20:00N 50°59' E 001°34'510.0
2018-Apr-19 19:30N 50°55' E 001°29'510.7
2018-Apr-19 19:01N 50°50' E 001°26'611.3
2018-Apr-19 18:30N 50°44' E 001°23'611.1
2018-Apr-19 17:59N 50°39' E 001°19'611.6
2018-Apr-19 17:30N 50°35' E 001°13'611.7
2018-Apr-19 17:00N 50°32' E 001°06'611.6
2018-Apr-19 16:30N 50°28' E 000°59'611.6
2018-Apr-19 15:59N 50°27' E 000°49'611.7
2018-Apr-19 15:30N 50°26' E 000°41'611.8
2018-Apr-19 14:59N 50°24' E 000°32'611.8
2018-Apr-19 14:30N 50°22' E 000°23'611.6
2018-Apr-19 14:00N 50°20' E 000°15'611.7
2018-Apr-19 13:30N 50°18' E 000°06'612.4
2018-Apr-19 13:00N 50°17' W 000°03'713.1
2018-Apr-19 12:30N 50°16' W 000°13'714.1
2018-Apr-19 12:00N 50°14' W 000°24'714.7
2018-Apr-19 11:30N 50°12' W 000°35'815.3
2018-Apr-19 11:00N 50°10' W 000°47'815.7
2018-Apr-19 10:30N 50°08' W 000°58'815.9
2018-Apr-19 10:01N 50°05' W 001°10'816.1
2018-Apr-19 09:31N 50°03' W 001°22'816.0
2018-Apr-19 09:01N 50°01' W 001°34'815.8
2018-Apr-19 08:30N 49°59' W 001°46'815.1
2018-Apr-19 08:01N 49°58' W 001°58'714.2
2018-Apr-19 07:31N 49°56' W 002°08'713.3
2018-Apr-19 07:01N 49°54' W 002°18'612.5
2018-Apr-19 06:30N 49°52' W 002°28'612.0
2018-Apr-19 06:00N 49°51' W 002°37'611.7
2018-Apr-19 05:30N 49°49' W 002°45'611.2
2018-Apr-19 05:00N 49°47' W 002°54'610.9
2018-Apr-19 04:27N 49°44' W 003°01'610.6
2018-Apr-19 03:54N 49°41' W 003°09'410.6
2018-Apr-19 03:31N 49°39' W 003°15'510.5
2018-Apr-19 03:00N 49°36' W 003°22'510.4
2018-Apr-19 02:31N 49°34' W 003°29'510.3
2018-Apr-19 02:01N 49°31' W 003°36'510.3
2018-Apr-19 01:30N 49°29' W 003°43'610.2
2018-Apr-19 00:52N 49°26' W 003°51'1010.3
2018-Apr-18 23:51N 49°21' W 004°06'510.4
2018-Apr-18 23:24N 49°19' W 004°12'410.5
2018-Apr-18 23:00N 49°17' W 004°17'510.6
2018-Apr-18 22:30N 49°14' W 004°24'511.0
2018-Apr-18 22:00N 49°11' W 004°32'611.2
2018-Apr-18 21:30N 49°08' W 004°39'611.8
2018-Apr-18 21:00N 49°05' W 004°47'812.0
2018-Apr-18 20:19N 49°01' W 004°58'1712.7
2018-Apr-18 18:58N 48°53' W 005°21'1513.5
2018-Apr-18 17:53N 48°45' W 005°39'1313.6
2018-Apr-18 16:58N 48°34' W 005°49'1413.7
2018-Apr-18 15:58N 48°22' W 005°58'3913.0
2018-Apr-18 12:58N 47°47' W 006°23'  
2018-Apr-14 10:34N 37°60' W 026°60'111.7
2018-Apr-14 10:30N 37°59' W 027°00'611.5
2018-Apr-14 10:00N 37°58' W 027°07'611.6
2018-Apr-14 09:30N 37°56' W 027°14'611.7
2018-Apr-14 09:00N 37°54' W 027°21'611.8
2018-Apr-14 08:30N 37°53' W 027°29'611.7
2018-Apr-14 08:00N 37°51' W 027°36'611.7
2018-Apr-14 07:31N 37°49' W 027°43'611.6
2018-Apr-14 07:00N 37°48' W 027°50'611.6
2018-Apr-14 06:30N 37°46' W 027°57'611.5
2018-Apr-14 06:00N 37°44' W 028°04'611.7
2018-Apr-14 05:30N 37°43' W 028°11'611.8
2018-Apr-14 05:00N 37°42' W 028°18'611.5
2018-Apr-14 04:30N 37°40' W 028°25'611.6
2018-Apr-14 04:00N 37°39' W 028°32'611.7
2018-Apr-14 03:30N 37°37' W 028°39'611.9
2018-Apr-14 03:00N 37°35' W 028°47'611.8
2018-Apr-14 02:30N 37°33' W 028°54'611.8
2018-Apr-14 02:00N 37°32' W 029°01'611.9
2018-Apr-14 01:29N 37°30' W 029°08'  

Dump ship's entire track history